Lake Panamoka, New York
Current Conditions -  °F | °C
As of 11:56 AM on Saturday 25 Oct 2014 (Local Time) from KHWV Reporting Station
Clear Clear  
Wind Chill: 62°   Ceiling: Unl
Heat Index: 62°   Visibility: 10mi
Dew Point: 42°   Wind: 7mph
Humidity: 48%   Direction: 230°SW
Pressure: 29.8"   Gusts: NA
Location:  40.8942°N, 72.8763°W
Report Text: KHWV 251556Z AUTO 23006KT 10SM CLR 17/06 A2980 RMK AO2 SLP091 T01670056 TSNO
Loading
Personal Weather Stations






























Interactive Weather Map New forecast layout! Learn more

10-Day Weather Forecast

Advertisements
Track Severe Weather on mobile